createdAt,value
2018-01-07T00:00:33.630Z,92.56
2018-01-07T00:03:01.060Z,91.19
2018-01-07T00:05:28.526Z,91.31
2018-01-07T00:07:56.064Z,91.79
2018-01-07T00:10:23.488Z,92.82
2018-01-07T00:12:50.949Z,91.88
2018-01-07T00:15:18.402Z,90.32
2018-01-07T00:17:45.864Z,90.55
2018-01-07T00:20:13.307Z,91.83
2018-01-07T00:22:40.849Z,91.97
2018-01-07T00:25:08.261Z,93.51
2018-01-07T00:27:35.721Z,92.99
2018-01-07T00:30:03.154Z,93.03
2018-01-07T00:32:30.697Z,92.44
2018-01-07T00:34:58.125Z,91.02
2018-01-07T00:37:25.573Z,90.25
2018-01-07T00:39:53.014Z,90.03
2018-01-07T00:42:20.466Z,90.02
2018-01-07T00:44:47.919Z,89.60
2018-01-07T00:47:15.383Z,90.29
2018-01-07T00:49:42.829Z,90.96
2018-01-07T00:52:10.289Z,92.09
2018-01-07T00:54:37.737Z,91.30
2018-01-07T00:57:05.210Z,91.60
2018-01-07T00:59:32.650Z,91.50
2018-01-07T01:02:00.113Z,91.69
2018-01-07T01:04:27.574Z,92.25
2018-01-07T01:06:55.001Z,92.14
2018-01-07T01:09:22.478Z,91.06
2018-01-07T01:11:49.950Z,92.01
2018-01-07T01:14:17.418Z,92.59
2018-01-07T01:16:44.862Z,91.72
2018-01-07T01:19:12.369Z,92.77
2018-01-07T01:21:39.806Z,92.05
2018-01-07T01:24:07.337Z,91.88
2018-01-07T01:26:34.782Z,92.21
2018-01-07T01:29:02.243Z,92.44
2018-01-07T01:31:29.669Z,93.53
2018-01-07T01:33:57.126Z,91.39
2018-01-07T01:36:24.610Z,91.40
2018-01-07T01:38:52.162Z,90.09
2018-01-07T01:41:19.656Z,91.79
2018-01-07T01:43:47.199Z,93.08
2018-01-07T01:46:14.789Z,93.10
2018-01-07T01:48:42.260Z,92.69
2018-01-07T01:51:09.724Z,92.44
2018-01-07T01:53:37.202Z,93.10
2018-01-07T01:56:04.662Z,93.54
2018-01-07T01:58:32.098Z,93.09
2018-01-07T02:00:59.570Z,94.06
2018-01-07T02:03:27.037Z,92.25
2018-01-07T02:05:54.483Z,91.10
2018-01-07T02:08:21.953Z,91.89
2018-01-07T02:10:49.415Z,91.53
2018-01-07T02:13:16.866Z,89.83
2018-01-07T02:15:44.317Z,90.18
2018-01-07T02:18:11.754Z,92.37
2018-01-07T02:20:39.230Z,92.57
2018-01-07T02:23:06.661Z,92.93
2018-01-07T02:25:34.165Z,89.98
2018-01-07T02:28:01.601Z,91.04
2018-01-07T02:30:29.041Z,92.04
2018-01-07T02:32:56.507Z,91.68
2018-01-07T02:35:23.942Z,90.12
2018-01-07T02:37:51.430Z,90.22
2018-01-07T02:40:18.862Z,90.09
2018-01-07T02:42:46.363Z,91.62
2018-01-07T02:45:13.909Z,91.57
2018-01-07T02:47:41.374Z,92.54
2018-01-07T02:50:08.917Z,90.54
2018-01-07T02:52:36.379Z,91.24
2018-01-07T02:55:03.810Z,92.50
2018-01-07T02:57:31.265Z,92.14
2018-01-07T02:59:58.702Z,91.35
2018-01-07T03:02:26.189Z,90.92
2018-01-07T03:04:53.646Z,91.31
2018-01-07T03:07:21.102Z,92.25
2018-01-07T03:09:48.538Z,92.11
2018-01-07T03:12:16.013Z,89.97
2018-01-07T03:14:43.499Z,90.04
2018-01-07T03:17:10.970Z,90.54
2018-01-07T03:19:38.406Z,90.50
2018-01-07T03:22:05.954Z,91.20
2018-01-07T03:24:33.468Z,90.51
2018-01-07T03:27:00.897Z,91.42
2018-01-07T03:29:28.349Z,90.26
2018-01-07T03:31:55.810Z,90.16
2018-01-07T03:34:23.272Z,90.73
2018-01-07T03:36:50.796Z,90.14
2018-01-07T03:39:18.257Z,91.34
2018-01-07T03:41:46.626Z,90.09
2018-01-07T03:44:14.186Z,90.72
2018-01-07T03:46:41.617Z,90.70
2018-01-07T03:49:09.076Z,90.47
2018-01-07T03:51:36.572Z,89.62
2018-01-07T03:54:04.043Z,91.08
2018-01-07T03:56:31.475Z,90.48
2018-01-07T03:58:58.932Z,90.40
2018-01-07T04:01:26.388Z,89.49
2018-01-07T04:03:53.926Z,90.66
2018-01-07T04:06:21.372Z,88.77
2018-01-07T04:08:48.862Z,91.71
2018-01-07T04:11:16.304Z,89.97
2018-01-07T04:13:43.737Z,90.29
2018-01-07T04:16:11.197Z,90.02
2018-01-07T04:18:38.641Z,91.33
2018-01-07T04:21:06.127Z,90.22
2018-01-07T04:23:33.575Z,89.63
2018-01-07T04:26:01.043Z,89.49
2018-01-07T04:28:28.485Z,89.53
2018-01-07T04:30:55.970Z,90.50
2018-01-07T04:33:23.396Z,91.33
2018-01-07T04:35:50.859Z,91.86
2018-01-07T04:38:18.336Z,91.41
2018-01-07T04:40:45.790Z,91.39
2018-01-07T04:43:13.220Z,91.28
2018-01-07T04:45:40.672Z,92.74
2018-01-07T04:48:08.113Z,91.55
2018-01-07T04:50:35.620Z,91.71
2018-01-07T04:53:03.059Z,91.60
2018-01-07T04:55:30.520Z,91.36
2018-01-07T04:57:57.982Z,90.54
2018-01-07T05:00:25.440Z,90.10
2018-01-07T05:02:52.878Z,91.61
2018-01-07T05:05:20.356Z,91.66
2018-01-07T05:07:47.790Z,92.08
2018-01-07T05:10:15.275Z,93.16
2018-01-07T05:12:42.741Z,92.96
2018-01-07T05:15:10.178Z,93.19
2018-01-07T05:17:37.648Z,93.17
2018-01-07T05:20:05.120Z,93.36
2018-01-07T05:22:32.731Z,93.69
2018-01-07T05:25:00.369Z,94.33
2018-01-07T05:27:27.829Z,93.26
2018-01-07T05:29:55.261Z,93.74
2018-01-07T05:32:22.719Z,94.31
2018-01-07T05:34:50.181Z,94.85
2018-01-07T05:37:17.665Z,94.78
2018-01-07T05:39:45.159Z,94.71
2018-01-07T05:42:12.615Z,94.17
2018-01-07T05:44:40.054Z,94.56
2018-01-07T05:47:07.617Z,94.36
2018-01-07T05:49:35.054Z,94.62
2018-01-07T05:52:02.518Z,95.17
2018-01-07T05:54:30.013Z,94.74
2018-01-07T05:56:57.483Z,94.90
2018-01-07T05:59:24.913Z,94.57
2018-01-07T06:01:52.476Z,94.28
2018-01-07T06:04:19.919Z,94.62
2018-01-07T06:06:47.360Z,94.91
2018-01-07T06:09:14.809Z,94.29
2018-01-07T06:11:42.259Z,94.20
2018-01-07T06:14:09.722Z,93.54
2018-01-07T06:16:37.169Z,93.63
2018-01-07T06:19:04.650Z,93.54
2018-01-07T06:21:32.082Z,93.42
2018-01-07T06:23:59.565Z,93.27
2018-01-07T06:26:27.001Z,93.73
2018-01-07T06:28:54.462Z,93.16
2018-01-07T06:31:21.890Z,93.60
2018-01-07T06:33:49.461Z,92.37
2018-01-07T06:36:16.917Z,92.89
2018-01-07T06:38:44.365Z,92.40
2018-01-07T06:41:11.881Z,92.24
2018-01-07T06:43:39.337Z,92.23
2018-01-07T06:46:06.831Z,91.79
2018-01-07T06:48:34.305Z,91.47
2018-01-07T06:51:01.737Z,90.89
2018-01-07T06:53:29.177Z,90.96
2018-01-07T06:55:56.626Z,90.80
2018-01-07T06:58:24.081Z,91.27
2018-01-07T07:00:51.550Z,90.54
2018-01-07T07:03:18.994Z,90.01
2018-01-07T07:05:46.451Z,89.89
2018-01-07T07:08:13.931Z,90.13
2018-01-07T07:10:41.407Z,90.44
2018-01-07T07:13:08.852Z,89.56
2018-01-07T07:15:36.334Z,89.24
2018-01-07T07:18:03.771Z,89.56
2018-01-07T07:20:31.234Z,89.99
2018-01-07T07:22:58.665Z,89.11
2018-01-07T07:25:26.126Z,88.99
2018-01-07T07:27:53.572Z,89.56
2018-01-07T07:30:21.101Z,88.38
2018-01-07T07:32:48.534Z,87.94
2018-01-07T07:35:15.998Z,88.94
2018-01-07T07:37:43.442Z,88.30
2018-01-07T07:40:10.940Z,88.57
2018-01-07T07:42:38.432Z,88.15
2018-01-07T07:45:05.947Z,87.83
2018-01-07T07:47:33.391Z,87.53
2018-01-07T07:50:00.837Z,87.40
2018-01-07T07:52:28.342Z,87.70
2018-01-07T07:54:55.772Z,87.53
2018-01-07T07:57:23.230Z,88.16
2018-01-07T07:59:50.746Z,87.79
2018-01-07T08:02:18.203Z,86.92
2018-01-07T08:04:45.642Z,87.14
2018-01-07T08:07:13.105Z,86.98
2018-01-07T08:09:40.538Z,87.07
2018-01-07T08:12:08.019Z,87.06
2018-01-07T08:14:35.460Z,86.99
2018-01-07T08:17:02.990Z,86.64
2018-01-07T08:19:30.907Z,87.06
2018-01-07T08:21:58.390Z,87.54
2018-01-07T08:24:25.842Z,87.27
2018-01-07T08:26:53.314Z,87.17
2018-01-07T08:29:20.795Z,86.66
2018-01-07T08:31:48.259Z,86.64
2018-01-07T08:34:15.691Z,87.36
2018-01-07T08:36:43.205Z,86.84
2018-01-07T08:39:10.645Z,86.90
2018-01-07T08:41:38.083Z,87.12
2018-01-07T08:44:05.537Z,86.55
2018-01-07T08:46:32.977Z,87.03
2018-01-07T08:49:00.458Z,87.30
2018-01-07T08:51:27.998Z,86.51
2018-01-07T08:53:55.456Z,86.55
2018-01-07T08:56:22.898Z,86.92
2018-01-07T08:58:50.374Z,86.51
2018-01-07T09:01:17.814Z,86.22
2018-01-07T09:03:45.271Z,86.79
2018-01-07T09:06:12.738Z,87.23
2018-01-07T09:08:40.194Z,86.42
2018-01-07T09:11:07.628Z,86.75
2018-01-07T09:13:35.110Z,86.32
2018-01-07T09:16:02.553Z,86.47
2018-01-07T09:18:30.018Z,85.63
2018-01-07T09:20:57.530Z,86.22
2018-01-07T09:23:25.003Z,86.58
2018-01-07T09:25:52.445Z,85.68
2018-01-07T09:28:19.900Z,86.18
2018-01-07T09:30:47.329Z,85.85
2018-01-07T09:33:14.800Z,85.24
2018-01-07T09:35:42.249Z,85.67
2018-01-07T09:38:09.688Z,85.46
2018-01-07T09:40:37.148Z,84.99
2018-01-07T09:43:04.588Z,85.21
2018-01-07T09:45:32.085Z,85.18
2018-01-07T09:47:59.502Z,84.30
2018-01-07T09:50:26.999Z,84.45
2018-01-07T09:52:54.433Z,84.62
2018-01-07T09:55:21.930Z,84.01
2018-01-07T09:57:49.467Z,84.46
2018-01-07T10:00:17.019Z,83.82
2018-01-07T10:02:44.599Z,83.65
2018-01-07T10:05:12.173Z,82.84
2018-01-07T10:07:39.623Z,81.97
2018-01-07T10:10:07.164Z,81.31
2018-01-07T10:12:34.620Z,82.13
2018-01-07T10:15:02.286Z,82.01
2018-01-07T10:17:29.867Z,82.32
2018-01-07T10:19:57.328Z,82.40
2018-01-07T10:22:24.809Z,81.54
2018-01-07T10:24:52.269Z,81.42
2018-01-07T10:27:19.720Z,81.69
2018-01-07T10:29:47.175Z,80.82
2018-01-07T10:32:14.642Z,80.83
2018-01-07T10:34:42.212Z,81.15
2018-01-07T10:37:09.697Z,80.80
2018-01-07T10:39:37.154Z,79.93
2018-01-07T10:42:04.613Z,80.26
2018-01-07T10:44:32.047Z,81.67
2018-01-07T10:46:59.543Z,80.40
2018-01-07T10:49:27.031Z,80.02
2018-01-07T10:51:54.482Z,79.48
2018-01-07T10:54:21.925Z,80.16
2018-01-07T10:56:49.422Z,79.83
2018-01-07T10:59:16.821Z,79.33
2018-01-07T11:01:49.997Z,78.81
2018-01-07T11:04:17.430Z,78.48
2018-01-07T11:06:44.889Z,77.04
2018-01-07T11:09:12.325Z,77.18
2018-01-07T11:11:39.874Z,76.00
2018-01-07T11:14:07.309Z,77.10
2018-01-07T11:16:34.891Z,76.87
2018-01-07T11:19:02.438Z,78.08
2018-01-07T11:21:29.881Z,77.23
2018-01-07T11:23:57.338Z,77.79
2018-01-07T11:26:24.945Z,78.12
2018-01-07T11:28:52.401Z,77.03
2018-01-07T11:31:19.934Z,77.76
2018-01-07T11:33:47.391Z,78.78
2018-01-07T11:36:14.839Z,78.62
2018-01-07T11:38:42.306Z,78.45
2018-01-07T11:41:09.756Z,78.00
2018-01-07T11:43:37.218Z,79.87
2018-01-07T11:46:04.659Z,77.95
2018-01-07T11:48:32.122Z,77.56
2018-01-07T11:50:59.557Z,77.54
2018-01-07T11:53:27.028Z,78.66
2018-01-07T11:55:54.465Z,77.36
2018-01-07T11:58:21.893Z,78.48
2018-01-07T12:00:49.601Z,78.15
2018-01-07T12:03:17.046Z,78.08
2018-01-07T12:05:44.748Z,77.66
2018-01-07T12:08:12.222Z,76.68
2018-01-07T12:10:39.685Z,77.16
2018-01-07T12:13:07.130Z,77.94
2018-01-07T12:15:34.664Z,79.09
2018-01-07T12:18:02.110Z,78.11
2018-01-07T12:20:29.569Z,77.63
2018-01-07T12:22:57.002Z,77.98
2018-01-07T12:25:24.440Z,77.45
2018-01-07T12:27:51.907Z,78.73
2018-01-07T12:30:19.351Z,77.26
2018-01-07T12:32:46.802Z,77.76
2018-01-07T12:35:14.264Z,77.88
2018-01-07T12:37:41.730Z,78.07
2018-01-07T12:40:09.165Z,78.09
2018-01-07T12:42:36.633Z,78.51
2018-01-07T12:45:04.086Z,78.76
2018-01-07T12:47:31.579Z,78.35
2018-01-07T12:49:59.010Z,79.17
2018-01-07T12:52:26.513Z,78.76
2018-01-07T12:54:53.954Z,78.09
2018-01-07T12:57:21.418Z,78.65
2018-01-07T12:59:48.934Z,78.35
2018-01-07T13:02:16.401Z,78.63
2018-01-07T13:04:43.853Z,78.99
2018-01-07T13:07:11.337Z,78.29
2018-01-07T13:09:38.770Z,79.05
2018-01-07T13:12:06.214Z,79.00
2018-01-07T13:14:33.674Z,78.70
2018-01-07T13:17:01.109Z,78.87
2018-01-07T13:19:28.621Z,78.59
2018-01-07T13:21:56.054Z,78.69
2018-01-07T13:24:23.677Z,78.80
2018-01-07T13:26:51.129Z,78.42
2018-01-07T13:29:18.581Z,79.25
2018-01-07T13:31:46.015Z,79.53
2018-01-07T13:34:13.470Z,79.14
2018-01-07T13:36:40.926Z,78.85
2018-01-07T13:39:08.400Z,79.56
2018-01-07T13:41:36.000Z,79.01
2018-01-07T13:44:03.450Z,79.09
2018-01-07T13:46:30.957Z,79.75
2018-01-07T13:48:58.421Z,79.31
2018-01-07T13:51:25.865Z,80.06
2018-01-07T13:53:53.335Z,78.99
2018-01-07T13:56:20.787Z,79.14
2018-01-07T13:58:48.253Z,79.31
2018-01-07T14:01:15.719Z,79.37
2018-01-07T14:03:43.198Z,79.45
2018-01-07T14:06:10.625Z,78.84
2018-01-07T14:08:38.162Z,79.19
2018-01-07T14:11:05.698Z,79.66
2018-01-07T14:13:33.134Z,79.05
2018-01-07T14:16:00.599Z,79.84
2018-01-07T14:18:28.049Z,79.26
2018-01-07T14:20:55.661Z,79.45
2018-01-07T14:23:23.089Z,79.32
2018-01-07T14:25:50.541Z,79.35
2018-01-07T14:28:18.031Z,79.59
2018-01-07T14:30:45.579Z,79.87
2018-01-07T14:33:13.091Z,79.76
2018-01-07T14:35:40.552Z,79.91
2018-01-07T14:38:07.986Z,80.24
2018-01-07T14:40:35.446Z,79.84
2018-01-07T14:43:02.943Z,79.40
2018-01-07T14:45:30.399Z,79.77
2018-01-07T14:47:57.834Z,80.18
2018-01-07T14:50:25.304Z,80.65
2018-01-07T14:52:52.750Z,80.78
2018-01-07T14:55:20.225Z,80.64
2018-01-07T14:57:47.661Z,80.52
2018-01-07T15:00:15.100Z,79.64
2018-01-07T15:02:42.553Z,80.41
2018-01-07T15:05:13.987Z,80.71
2018-01-07T15:07:41.525Z,80.98
2018-01-07T15:10:08.978Z,80.85
2018-01-07T15:12:36.429Z,81.32
2018-01-07T15:15:03.868Z,80.94
2018-01-07T15:17:31.325Z,81.23
2018-01-07T15:19:58.764Z,81.41
2018-01-07T15:22:26.275Z,81.05
2018-01-07T15:24:53.831Z,81.17
2018-01-07T15:27:21.290Z,81.11
2018-01-07T15:29:48.726Z,81.30
2018-01-07T15:32:16.181Z,81.52
2018-01-07T15:34:43.957Z,81.30
2018-01-07T15:37:11.454Z,81.36
2018-01-07T15:39:38.965Z,80.87
2018-01-07T15:42:06.470Z,81.25
2018-01-07T15:44:33.921Z,81.54
2018-01-07T15:47:01.506Z,81.68
2018-01-07T15:49:28.969Z,81.44
2018-01-07T15:51:56.482Z,81.75
2018-01-07T15:54:24.023Z,81.77
2018-01-07T15:56:51.453Z,82.16
2018-01-07T15:59:19.051Z,81.70
2018-01-07T16:01:46.495Z,81.94
2018-01-07T16:04:14.046Z,82.14
2018-01-07T16:06:41.478Z,82.05
2018-01-07T16:09:08.971Z,82.40
2018-01-07T16:11:36.418Z,82.43
2018-01-07T16:14:03.888Z,82.19
2018-01-07T16:16:31.336Z,82.39
2018-01-07T16:18:58.767Z,81.78
2018-01-07T16:21:26.255Z,81.88
2018-01-07T16:23:53.690Z,81.43
2018-01-07T16:26:21.275Z,82.18
2018-01-07T16:28:48.721Z,81.70
2018-01-07T16:31:16.278Z,81.63
2018-01-07T16:33:43.714Z,81.82
2018-01-07T16:36:11.211Z,81.68
2018-01-07T16:38:38.641Z,82.04
2018-01-07T16:41:06.203Z,81.96
2018-01-07T16:43:33.628Z,81.74
2018-01-07T16:46:01.093Z,81.39
2018-01-07T16:48:28.533Z,81.60
2018-01-07T16:50:55.978Z,81.67
2018-01-07T16:53:23.439Z,82.06
2018-01-07T16:55:50.889Z,81.61
2018-01-07T16:58:18.352Z,81.54
2018-01-07T17:00:45.786Z,81.28
2018-01-07T17:03:13.238Z,81.54
2018-01-07T17:05:40.675Z,81.85
2018-01-07T17:08:08.230Z,81.72
2018-01-07T17:10:35.662Z,81.67
2018-01-07T17:13:03.131Z,81.73
2018-01-07T17:15:30.758Z,80.76
2018-01-07T17:17:58.215Z,80.99
2018-01-07T17:20:26.053Z,81.53
2018-01-07T17:22:53.561Z,81.27
2018-01-07T17:25:21.001Z,81.18
2018-01-07T17:27:48.467Z,81.53
2018-01-07T17:30:15.905Z,81.24
2018-01-07T17:32:43.352Z,80.92
2018-01-07T17:35:10.853Z,81.72
2018-01-07T17:37:38.304Z,81.40
2018-01-07T17:40:05.759Z,81.52
2018-01-07T17:42:33.197Z,81.32
2018-01-07T17:45:00.677Z,81.09
2018-01-07T17:47:28.148Z,80.93
2018-01-07T17:49:55.620Z,80.76
2018-01-07T17:52:23.058Z,81.18
2018-01-07T17:54:50.522Z,81.58
2018-01-07T17:57:18.062Z,80.78
2018-01-07T17:59:45.518Z,80.81
2018-01-07T18:02:12.970Z,80.63
2018-01-07T18:04:40.442Z,81.14
2018-01-07T18:07:07.874Z,81.11
2018-01-07T18:09:35.348Z,81.17
2018-01-07T18:12:02.794Z,80.59
2018-01-07T18:14:30.252Z,81.16
2018-01-07T18:16:57.691Z,81.18
2018-01-07T18:19:25.142Z,80.59
2018-01-07T18:21:52.662Z,80.67
2018-01-07T18:24:20.101Z,80.72
2018-01-07T18:26:47.650Z,80.87
2018-01-07T18:29:15.086Z,80.82
2018-01-07T18:31:42.704Z,80.58
2018-01-07T18:34:10.223Z,80.76
2018-01-07T18:36:37.785Z,80.06
2018-01-07T18:39:05.226Z,80.64
2018-01-07T18:41:32.707Z,80.23
2018-01-07T18:44:00.142Z,81.02
2018-01-07T18:46:27.705Z,80.27
2018-01-07T18:48:55.175Z,80.10
2018-01-07T18:51:22.642Z,79.95
2018-01-07T18:53:50.086Z,80.71
2018-01-07T18:56:17.516Z,80.51
2018-01-07T18:58:44.994Z,80.42
2018-01-07T19:01:12.436Z,80.79
2018-01-07T19:03:39.970Z,80.86
2018-01-07T19:06:07.371Z,80.68
2018-01-07T19:08:34.825Z,80.62
2018-01-07T19:11:02.253Z,80.48
2018-01-07T19:13:29.734Z,80.84
2018-01-07T19:15:57.253Z,81.00
2018-01-07T19:18:24.745Z,81.02
2018-01-07T19:20:52.192Z,81.17
2018-01-07T19:23:19.734Z,81.47
2018-01-07T19:25:47.178Z,81.92
2018-01-07T19:28:14.692Z,81.12
2018-01-07T19:30:42.224Z,81.55
2018-01-07T19:33:09.677Z,82.03
2018-01-07T19:35:37.119Z,81.84
2018-01-07T19:38:04.558Z,81.12
2018-01-07T19:40:32.031Z,81.59
2018-01-07T19:42:59.471Z,81.02
2018-01-07T19:45:26.985Z,81.25
2018-01-07T19:47:54.418Z,81.60
2018-01-07T19:50:21.883Z,81.68
2018-01-07T19:52:49.349Z,81.70
2018-01-07T19:55:16.923Z,82.04
2018-01-07T19:57:44.461Z,81.49
2018-01-07T20:00:11.925Z,81.73
2018-01-07T20:02:39.465Z,82.04
2018-01-07T20:05:07.037Z,82.39
2018-01-07T20:07:34.593Z,81.92
2018-01-07T20:10:02.065Z,81.82
2018-01-07T20:12:29.501Z,82.18
2018-01-07T20:14:56.948Z,81.77
2018-01-07T20:17:24.502Z,82.03
2018-01-07T20:19:51.939Z,82.20
2018-01-07T20:22:19.442Z,82.51
2018-01-07T20:24:46.883Z,81.78
2018-01-07T20:27:14.342Z,82.34
2018-01-07T20:29:41.790Z,82.46
2018-01-07T20:32:09.242Z,82.66
2018-01-07T20:34:36.681Z,82.43
2018-01-07T20:37:04.192Z,82.60
2018-01-07T20:39:31.630Z,82.57
2018-01-07T20:41:59.094Z,82.88
2018-01-07T20:44:26.550Z,82.66
2018-01-07T20:46:53.997Z,82.88
2018-01-07T20:49:21.429Z,83.01
2018-01-07T20:51:48.882Z,83.62
2018-01-07T20:54:16.318Z,83.65
2018-01-07T20:56:43.799Z,83.90
2018-01-07T20:59:11.246Z,83.71
2018-01-07T21:01:38.723Z,83.92
2018-01-07T21:04:06.156Z,83.47
2018-01-07T21:06:33.626Z,83.97
2018-01-07T21:09:01.069Z,83.89
2018-01-07T21:11:28.502Z,83.95
2018-01-07T21:13:55.958Z,84.34
2018-01-07T21:16:23.393Z,84.20
2018-01-07T21:18:50.853Z,84.53
2018-01-07T21:21:18.322Z,84.53
2018-01-07T21:23:45.778Z,84.29
2018-01-07T21:26:13.210Z,84.50
2018-01-07T21:28:40.674Z,84.41
2018-01-07T21:31:08.104Z,84.58
2018-01-07T21:33:35.566Z,84.67
2018-01-07T21:36:03.034Z,84.81
2018-01-07T21:38:30.503Z,84.66
2018-01-07T21:40:57.954Z,84.78
2018-01-07T21:43:25.402Z,84.90
2018-01-07T21:45:52.948Z,84.90
2018-01-07T21:48:20.394Z,85.09
2018-01-07T21:50:47.854Z,84.89
2018-01-07T21:53:15.293Z,85.20
2018-01-07T21:55:42.773Z,84.98
2018-01-07T21:58:10.205Z,85.21
2018-01-07T22:00:49.430Z,85.14
2018-01-07T22:03:28.655Z,85.30
2018-01-07T22:05:56.122Z,85.06
2018-01-07T22:08:23.568Z,85.13
2018-01-07T22:10:51.075Z,85.05
2018-01-07T22:13:18.525Z,85.37
2018-01-07T22:15:46.005Z,85.52
2018-01-07T22:18:13.447Z,85.48
2018-01-07T22:20:40.931Z,85.82
2018-01-07T22:23:08.367Z,85.27
2018-01-07T22:25:35.828Z,85.18
2018-01-07T22:28:03.273Z,85.50
2018-01-07T22:30:30.743Z,85.40
2018-01-07T22:32:58.194Z,85.47
2018-01-07T22:35:25.671Z,85.42
2018-01-07T22:37:53.184Z,85.48
2018-01-07T22:40:20.632Z,85.34
2018-01-07T22:42:48.094Z,85.33
2018-01-07T22:45:15.576Z,85.37
2018-01-07T22:47:48.708Z,85.15
2018-01-07T22:50:16.145Z,85.13
2018-01-07T22:52:43.664Z,85.19
2018-01-07T22:55:11.147Z,85.36
2018-01-07T22:57:38.683Z,84.84
2018-01-07T23:00:06.144Z,85.00
2018-01-07T23:02:33.609Z,85.10
2018-01-07T23:05:01.050Z,85.30
2018-01-07T23:07:28.521Z,84.90
2018-01-07T23:09:55.957Z,85.05
2018-01-07T23:12:23.512Z,84.92
2018-01-07T23:14:50.946Z,85.13
2018-01-07T23:17:18.437Z,85.12
2018-01-07T23:19:45.878Z,85.10
2018-01-07T23:22:13.425Z,85.17
2018-01-07T23:24:40.900Z,84.89
2018-01-07T23:27:08.347Z,85.02
2018-01-07T23:29:35.827Z,85.07
2018-01-07T23:32:03.269Z,84.94
2018-01-07T23:34:30.833Z,85.00
2018-01-07T23:36:58.262Z,85.05
2018-01-07T23:39:25.717Z,84.85
2018-01-07T23:41:53.261Z,84.36
2018-01-07T23:44:20.735Z,84.63
2018-01-07T23:46:48.214Z,84.87
2018-01-07T23:49:15.741Z,84.35
2018-01-07T23:51:43.225Z,84.57
2018-01-07T23:54:10.746Z,84.67
2018-01-07T23:56:38.200Z,84.45
2018-01-07T23:59:05.709Z,84.49
